Time;durP1;ratioP1;P1;durP2;ratioP2;P2;SDS_P1;SDS_P2;PMS_P1;PMS_P2;Temp;Humidity;BMP_temperature;BMP_pressure;BME280_temperature;BME280_humidity;BME280_pressure;Samples;Min_cycle;Max_cycle;Signal;HPM_P1;HPM_P2
2024/01/24 00:00:26;;;;;;;8.13;5.78;;;7.70;70.30;;;;;;6152470;23;20099;-76
2024/01/24 00:02:52;;;;;;;7.63;5.53;;;7.70;70.30;;;;;;6126941;23;20013;-77
2024/01/24 00:05:18;;;;;;;9.80;5.75;;;7.70;70.20;;;;;;6153462;23;20014;-77
2024/01/24 00:07:44;;;;;;;8.25;5.60;;;7.70;70.30;;;;;;6127279;23;20017;-76
2024/01/24 00:10:11;;;;;;;6.95;5.25;;;7.70;70.30;;;;;;6152240;23;20481;-76
2024/01/24 00:12:37;;;;;;;7.28;5.72;;;7.70;70.20;;;;;;6126862;23;20374;-76
2024/01/24 00:15:04;;;;;;;6.68;5.20;;;7.70;70.20;;;;;;6152893;23;20464;-76
2024/01/24 00:17:30;;;;;;;8.15;6.10;;;7.70;70.30;;;;;;6153178;23;20076;-76
2024/01/24 00:19:56;;;;;;;7.70;5.53;;;7.70;70.20;;;;;;6152819;23;20025;-77
2024/01/24 00:22:22;;;;;;;7.47;5.53;;;7.70;70.20;;;;;;6153255;23;20017;-76
2024/01/24 00:24:48;;;;;;;7.68;6.07;;;7.70;70.20;;;;;;6153130;23;20021;-75
2024/01/24 00:27:14;;;;;;;6.85;5.50;;;7.70;70.10;;;;;;6151579;23;20075;-78
2024/01/24 00:29:40;;;;;;;7.35;5.60;;;7.70;70.00;;;;;;6127017;23;20021;-77
2024/01/24 00:32:06;;;;;;;6.90;5.47;;;7.70;70.00;;;;;;6152907;23;20438;-76
2024/01/24 00:34:32;;;;;;;8.02;5.60;;;7.70;70.10;;;;;;6153455;23;20488;-76
2024/01/24 00:36:58;;;;;;;6.53;5.45;;;7.70;70.00;;;;;;6126868;23;20013;-76
2024/01/24 00:39:24;;;;;;;6.90;5.47;;;7.70;70.00;;;;;;6152908;23;20068;-76
2024/01/24 00:41:50;;;;;;;6.80;5.25;;;7.70;70.10;;;;;;6152615;23;20045;-76
2024/01/24 00:44:16;;;;;;;7.85;5.38;;;7.70;70.10;;;;;;6127082;23;20025;-76
2024/01/24 00:46:42;;;;;;;7.40;5.65;;;7.70;70.20;;;;;;6153326;23;20017;-76
2024/01/24 00:49:10;;;;;;;8.05;5.80;;;7.70;70.10;;;;;;6127468;23;20014;-75
2024/01/24 00:51:38;;;;;;;7.80;6.00;;;7.70;70.10;;;;;;6152748;23;20021;-76
2024/01/24 00:54:05;;;;;;;7.10;5.60;;;7.70;70.10;;;;;;6151627;23;20020;-76
2024/01/24 00:56:31;;;;;;;7.50;5.25;;;7.70;70.10;;;;;;6151431;23;20017;-76
2024/01/24 00:58:57;;;;;;;6.25;5.00;;;7.70;70.20;;;;;;6126712;23;20567;-77
2024/01/24 01:01:23;;;;;;;6.10;4.93;;;7.70;70.10;;;;;;6102416;23;20013;-76
2024/01/24 01:03:49;;;;;;;13.27;5.57;;;7.70;70.20;;;;;;6126531;23;20372;-77
2024/01/24 01:06:15;;;;;;;5.78;4.95;;;7.70;70.20;;;;;;6152844;23;20100;-75
2024/01/24 01:08:41;;;;;;;6.03;4.95;;;7.70;70.20;;;;;;6152819;23;20033;-76
2024/01/24 01:11:07;;;;;;;6.55;5.55;;;7.70;70.20;;;;;;6101709;23;20519;-76
2024/01/24 01:13:34;;;;;;;6.28;5.20;;;7.70;70.20;;;;;;6127219;23;20032;-76
2024/01/24 01:16:00;;;;;;;8.30;5.68;;;7.70;70.20;;;;;;6126805;23;20018;-76
2024/01/24 01:18:26;;;;;;;7.90;6.13;;;7.70;70.10;;;;;;6126500;23;20040;-76
2024/01/24 01:20:52;;;;;;;8.15;5.90;;;7.70;70.00;;;;;;6101610;23;20488;-76
2024/01/24 01:23:19;;;;;;;8.93;5.57;;;7.70;70.60;;;;;;6152768;23;20017;-77
2024/01/24 01:25:45;;;;;;;8.00;5.72;;;7.70;70.00;;;;;;6152474;23;20009;-75
2024/01/24 01:28:11;;;;;;;6.28;4.97;;;7.70;70.20;;;;;;6127442;23;20020;-76
2024/01/24 01:30:37;;;;;;;6.03;5.07;;;7.70;70.00;;;;;;6152451;23;20049;-76
2024/01/24 01:33:03;;;;;;;5.95;4.95;;;7.70;70.00;;;;;;6126174;23;20026;-76
2024/01/24 01:35:29;;;;;;;6.70;5.15;;;7.70;70.00;;;;;;6126203;23;20454;-77
2024/01/24 01:37:55;;;;;;;6.63;5.15;;;7.70;70.00;;;;;;6126461;23;20041;-75
2024/01/24 01:40:21;;;;;;;7.53;5.32;;;7.70;69.90;;;;;;6127069;23;20476;-77
2024/01/24 01:42:47;;;;;;;8.55;5.70;;;7.70;70.00;;;;;;6125889;23;20021;-76
2024/01/24 01:45:13;;;;;;;6.15;5.15;;;7.60;69.90;;;;;;6126318;23;20544;-77
2024/01/24 01:47:39;;;;;;;7.30;5.25;;;7.60;70.00;;;;;;6121170;23;20474;-77
2024/01/24 01:50:13;;;;;;;6.72;5.18;;;7.60;69.90;;;;;;6096964;23;20392;-76
2024/01/24 01:52:41;;;;;;;6.40;5.20;;;7.60;70.00;;;;;;6121264;23;20020;-77
2024/01/24 01:55:10;;;;;;;8.00;5.82;;;7.60;70.00;;;;;;6123442;23;20013;-77
2024/01/24 01:57:39;;;;;;;6.72;5.50;;;7.70;70.00;;;;;;6120179;23;20045;-78
2024/01/24 02:00:06;;;;;;;6.38;5.40;;;7.60;69.80;;;;;;6121420;23;20076;-77
2024/01/24 02:02:32;;;;;;;5.97;4.80;;;7.60;69.70;;;;;;6096520;23;20041;-77
2024/01/24 02:04:58;;;;;;;5.85;4.70;;;7.60;69.80;;;;;;6096888;23;20022;-77
2024/01/24 02:07:24;;;;;;;6.05;5.10;;;7.60;69.80;;;;;;6122914;23;20020;-77
2024/01/24 02:09:50;;;;;;;8.48;5.20;;;7.60;69.80;;;;;;6122489;23;20022;-76
2024/01/24 02:12:16;;;;;;;6.65;5.43;;;7.60;69.80;;;;;;6120439;23;20022;-77
2024/01/24 02:14:42;;;;;;;6.55;4.97;;;7.70;70.00;;;;;;6122722;23;20021;-77
2024/01/24 02:17:08;;;;;;;6.47;5.18;;;7.70;69.90;;;;;;6122583;23;20021;-77
2024/01/24 02:19:34;;;;;;;7.10;5.30;;;7.60;69.80;;;;;;6122484;23;20045;-77
2024/01/24 02:22:00;;;;;;;5.68;4.80;;;7.70;70.00;;;;;;6120753;23;20508;-77
2024/01/24 02:24:26;;;;;;;7.85;5.60;;;7.60;69.90;;;;;;6096866;23;20028;-78
2024/01/24 02:26:52;;;;;;;6.15;5.07;;;7.70;70.10;;;;;;6122709;23;20022;-77
2024/01/24 02:29:18;;;;;;;7.00;5.38;;;7.60;70.00;;;;;;6072466;23;20022;-76
2024/01/24 02:31:44;;;;;;;6.18;5.07;;;7.60;70.00;;;;;;6121952;23;20018;-77
2024/01/24 02:34:10;;;;;;;8.05;5.72;;;7.70;70.10;;;;;;6122883;23;20009;-77
2024/01/24 02:36:36;;;;;;;6.65;5.43;;;7.60;70.00;;;;;;6122573;23;20112;-76
2024/01/24 02:39:03;;;;;;;6.35;4.90;;;7.70;70.20;;;;;;6120387;23;20060;-75
2024/01/24 02:41:31;;;;;;;5.93;4.95;;;7.60;70.20;;;;;;6120088;23;20057;-75
2024/01/24 02:43:57;;;;;;;5.65;4.90;;;7.60;70.20;;;;;;6120495;23;20029;-75
2024/01/24 02:46:23;;;;;;;5.85;5.18;;;7.70;70.20;;;;;;6122904;23;20013;-75
2024/01/24 02:48:49;;;;;;;6.38;5.20;;;7.60;70.10;;;;;;6120300;23;20038;-77
2024/01/24 02:51:25;;;;;;;7.07;5.45;;;7.60;70.10;;;;;;6144925;23;20528;-77
2024/01/24 02:53:52;;;;;;;6.82;5.25;;;7.60;70.10;;;;;;6122100;23;20048;-76
2024/01/24 02:56:19;;;;;;;7.50;6.00;;;7.60;70.10;;;;;;6122489;23;20018;-77
2024/01/24 02:58:45;;;;;;;7.10;5.25;;;7.60;70.10;;;;;;6120591;23;20335;-76
2024/01/24 03:01:11;;;;;;;7.25;5.13;;;7.60;70.20;;;;;;6145462;23;20022;-76
2024/01/24 03:03:41;;;;;;;6.90;4.95;;;7.70;70.10;;;;;;6122723;23;20457;-76
2024/01/24 03:06:07;;;;;;;7.10;5.40;;;7.60;70.10;;;;;;6096208;23;20018;-76
2024/01/24 03:08:57;;;;;;;7.25;4.90;;;7.70;70.10;;;;;;6122001;23;20022;-76
2024/01/24 03:11:26;;;;;;;6.65;5.43;;;7.70;70.20;;;;;;6120301;23;20496;-75
2024/01/24 03:13:52;;;;;;;8.85;5.15;;;7.70;70.20;;;;;;6144971;23;20010;-74
2024/01/24 03:16:18;;;;;;;7.05;5.30;;;7.70;70.20;;;;;;6121828;23;20013;-75
2024/01/24 03:18:44;;;;;;;8.88;5.07;;;7.70;70.10;;;;;;6120255;23;20138;-75
2024/01/24 03:21:17;;;;;;;7.18;5.05;;;7.60;70.00;;;;;;6121000;23;20026;-75
2024/01/24 03:23:44;;;;;;;6.40;4.70;;;7.70;70.20;;;;;;6096366;23;20339;-76
2024/01/24 03:26:10;;;;;;;8.80;5.18;;;7.70;70.20;;;;;;6122178;23;20047;-76
2024/01/24 03:28:36;;;;;;;6.22;4.80;;;7.70;70.30;;;;;;6145703;23;20018;-75
2024/01/24 03:31:03;;;;;;;6.97;5.20;;;7.70;70.40;;;;;;6095295;23;20180;-76
2024/01/24 03:33:29;;;;;;;5.53;4.55;;;7.60;70.40;;;;;;6144952;23;20046;-76
2024/01/24 03:35:55;;;;;;;6.03;4.90;;;7.60;70.50;;;;;;6122209;23;20018;-75
2024/01/24 03:38:21;;;;;;;7.38;5.30;;;7.70;70.50;;;;;;6122225;23;20534;-76
2024/01/24 03:40:47;;;;;;;6.75;5.07;;;7.60;70.40;;;;;;6120030;23;20014;-76
2024/01/24 03:43:14;;;;;;;6.65;5.05;;;7.70;70.60;;;;;;6121126;23;20357;-74
2024/01/24 03:45:40;;;;;;;6.18;4.88;;;7.70;70.60;;;;;;6120106;23;20117;-76
2024/01/24 03:48:06;;;;;;;6.60;5.30;;;7.60;70.60;;;;;;6144490;23;20470;-75
2024/01/24 03:50:33;;;;;;;6.20;5.07;;;7.70;70.80;;;;;;6120730;23;20478;-76
2024/01/24 03:53:02;;;;;;;5.55;4.95;;;7.70;70.80;;;;;;6121425;23;20469;-75
2024/01/24 03:55:29;;;;;;;8.30;5.00;;;7.70;70.80;;;;;;6124110;23;20323;-75
2024/01/24 03:57:56;;;;;;;7.63;4.72;;;7.70;71.00;;;;;;6121931;23;20454;-76
2024/01/24 04:00:23;;;;;;;6.30;4.85;;;7.70;70.90;;;;;;6123230;23;20109;-76
2024/01/24 04:02:49;;;;;;;5.38;4.50;;;7.70;70.80;;;;;;6122730;23;20018;-76
2024/01/24 04:05:16;;;;;;;6.60;4.80;;;7.70;70.90;;;;;;6146686;23;20018;-76
2024/01/24 04:07:42;;;;;;;6.25;4.88;;;7.70;70.90;;;;;;6122356;23;20061;-75
2024/01/24 04:10:08;;;;;;;7.43;5.28;;;7.70;70.80;;;;;;6122661;23;20535;-77
2024/01/24 04:12:34;;;;;;;8.93;5.30;;;7.70;70.80;;;;;;6122081;23;20105;-76
2024/01/24 04:15:00;;;;;;;6.22;5.47;;;7.70;70.80;;;;;;6123711;23;20092;-77
2024/01/24 04:17:26;;;;;;;7.63;4.95;;;7.70;70.80;;;;;;6123327;23;20021;-80
2024/01/24 04:19:52;;;;;;;6.22;4.90;;;7.60;70.60;;;;;;6122208;23;20014;-77
2024/01/24 04:22:18;;;;;;;6.15;4.57;;;7.70;70.80;;;;;;6122662;23;20068;-76
2024/01/24 04:24:45;;;;;;;8.45;5.38;;;7.70;70.80;;;;;;6097564;23;20029;-76
2024/01/24 04:27:11;;;;;;;6.20;4.65;;;7.70;70.80;;;;;;6122071;23;20022;-77
2024/01/24 04:29:37;;;;;;;7.03;5.25;;;7.70;70.80;;;;;;6123986;23;20022;-77
2024/01/24 04:34:48;;;;;;;6.53;4.75;;;7.70;70.80;;;;;;6123342;23;20014;-78
2024/01/24 04:37:14;;;;;;;7.15;5.47;;;7.70;70.70;;;;;;6124193;23;20083;-78
2024/01/24 04:39:41;;;;;;;7.60;5.85;;;7.70;70.60;;;;;;6123842;23;20639;-78
2024/01/24 04:42:07;;;;;;;7.65;5.13;;;7.70;70.60;;;;;;6121955;23;20030;-76
2024/01/24 04:44:33;;;;;;;8.85;5.68;;;7.70;70.60;;;;;;6123515;23;20472;-77
2024/01/24 04:47:01;;;;;;;7.80;5.00;;;7.70;70.50;;;;;;6122231;23;20068;-79
2024/01/24 04:49:27;;;;;;;7.38;5.15;;;7.70;70.50;;;;;;6098565;23;20105;-78
2024/01/24 04:51:53;;;;;;;6.70;5.53;;;7.60;70.50;;;;;;6123714;23;20018;-78
2024/01/24 04:54:19;;;;;;;6.93;5.57;;;7.70;70.50;;;;;;6123198;23;20018;-78
2024/01/24 04:56:46;;;;;;;7.57;5.30;;;7.70;70.50;;;;;;6122796;23;20037;-79
2024/01/24 04:59:12;;;;;;;6.75;5.32;;;7.70;70.40;;;;;;6097871;23;20014;-78
2024/01/24 05:01:39;;;;;;;7.90;5.93;;;7.70;70.50;;;;;;6097924;23;20013;-79
2024/01/24 05:04:05;;;;;;;6.53;5.47;;;7.70;71.10;;;;;;6098145;23;20525;-78
2024/01/24 05:06:31;;;;;;;8.10;6.18;;;7.70;70.50;;;;;;6121700;23;20014;-77
2024/01/24 05:08:57;;;;;;;8.13;5.68;;;7.70;70.60;;;;;;6097429;23;20041;-78
2024/01/24 05:11:23;;;;;;;6.53;5.57;;;7.70;70.60;;;;;;6123347;23;20014;-78
2024/01/24 05:13:49;;;;;;;7.68;5.80;;;7.70;70.60;;;;;;6123894;23;20014;-78
2024/01/24 05:16:15;;;;;;;8.05;6.10;;;7.70;70.60;;;;;;6122416;23;20006;-77
2024/01/24 05:18:41;;;;;;;8.75;5.93;;;7.70;70.60;;;;;;6122229;23;20021;-77
2024/01/24 05:21:07;;;;;;;9.57;6.47;;;7.70;70.60;;;;;;6123014;23;20519;-77
2024/01/24 05:23:33;;;;;;;8.48;6.43;;;7.70;70.70;;;;;;6121512;23;20085;-79
2024/01/24 05:25:59;;;;;;;7.72;5.78;;;7.70;70.80;;;;;;6097529;23;20065;-77
2024/01/24 05:28:25;;;;;;;9.50;6.93;;;7.70;70.80;;;;;;6123591;23;20014;-77
2024/01/24 05:30:51;;;;;;;8.13;5.88;;;7.70;70.80;;;;;;6121324;23;20018;-77
2024/01/24 05:33:18;;;;;;;8.85;6.47;;;7.70;70.60;;;;;;6146199;23;20049;-78
2024/01/24 05:35:45;;;;;;;9.05;6.13;;;7.70;70.80;;;;;;6123120;23;20026;-78
2024/01/24 05:38:11;;;;;;;7.47;6.13;;;7.70;70.70;;;;;;6123088;23;20022;-78
2024/01/24 05:40:37;;;;;;;7.80;5.97;;;7.70;70.80;;;;;;6146332;23;20311;-78
2024/01/24 05:43:04;;;;;;;9.77;5.95;;;7.70;70.80;;;;;;6119948;23;20438;-78
2024/01/24 05:45:30;;;;;;;16.02;6.03;;;7.70;70.80;;;;;;6123031;23;20025;-78
2024/01/24 05:47:56;;;;;;;8.02;5.78;;;7.70;70.80;;;;;;6139642;23;20104;-78
2024/01/24 05:50:22;;;;;;;7.68;5.75;;;7.70;70.70;;;;;;6152436;23;20068;-78
2024/01/24 05:52:48;;;;;;;9.07;5.78;;;7.70;70.80;;;;;;6152181;23;20092;-77
2024/01/24 05:55:14;;;;;;;9.10;5.90;;;7.80;70.80;;;;;;6152852;23;20009;-79
2024/01/24 05:57:41;;;;;;;8.55;6.22;;;7.70;70.80;;;;;;6152532;23;20018;-78
2024/01/24 06:00:10;;;;;;;9.20;6.43;;;7.70;70.80;;;;;;6126137;23;20096;-78
2024/01/24 06:02:37;;;;;;;10.23;6.97;;;7.80;70.90;;;;;;6126352;23;20038;-79
2024/01/24 06:05:04;;;;;;;10.35;6.70;;;7.70;70.90;;;;;;6150559;23;20021;-76
2024/01/24 06:07:31;;;;;;;15.80;6.78;;;7.80;71.10;;;;;;6126812;23;20025;-77
2024/01/24 06:09:57;;;;;;;8.73;6.40;;;7.80;71.00;;;;;;6150912;23;20112;-78
2024/01/24 06:12:24;;;;;;;10.93;6.80;;;7.80;71.00;;;;;;6152193;23;20017;-78
2024/01/24 06:14:51;;;;;;;10.52;6.90;;;7.80;71.00;;;;;;6125812;23;20025;-78
2024/01/24 06:17:17;;;;;;;11.60;6.63;;;7.80;71.10;;;;;;6150630;23;20021;-78
2024/01/24 06:19:43;;;;;;;9.27;7.07;;;7.80;71.00;;;;;;6152377;23;20016;-78
2024/01/24 06:22:09;;;;;;;10.07;6.45;;;7.80;71.00;;;;;;6152698;23;20049;-78
2024/01/24 06:24:36;;;;;;;10.60;6.75;;;7.80;71.00;;;;;;6102047;23;20400;-78
2024/01/24 06:27:03;;;;;;;8.77;6.43;;;7.80;71.00;;;;;;6126088;23;20021;-78
2024/01/24 06:29:29;;;;;;;10.35;6.30;;;7.80;70.90;;;;;;6152033;23;20023;-78
2024/01/24 06:31:57;;;;;;;8.60;6.25;;;7.80;71.00;;;;;;6151995;23;20037;-77
2024/01/24 06:34:23;;;;;;;8.60;6.68;;;7.80;71.00;;;;;;6150913;23;20009;-78
2024/01/24 06:36:49;;;;;;;8.93;6.35;;;7.80;71.00;;;;;;6152668;23;20552;-78
2024/01/24 06:39:15;;;;;;;9.20;6.40;;;7.80;71.00;;;;;;6126191;23;20021;-79
2024/01/24 06:41:42;;;;;;;9.82;6.32;;;7.80;70.90;;;;;;6126222;23;20091;-79
2024/01/24 06:44:08;;;;;;;8.93;6.35;;;7.80;70.90;;;;;;6150375;23;20064;-78
2024/01/24 06:46:42;;;;;;;10.07;6.68;;;7.80;70.80;;;;;;6126909;23;20017;-78
2024/01/24 06:49:10;;;;;;;10.30;6.35;;;7.80;70.80;;;;;;6149839;23;20029;-78
2024/01/24 06:51:39;;;;;;;9.93;6.60;;;7.80;70.80;;;;;;6125451;23;20021;-79
2024/01/24 06:54:06;;;;;;;8.60;6.40;;;7.80;70.70;;;;;;6151932;23;20024;-79
2024/01/24 06:56:33;;;;;;;9.50;6.22;;;7.80;70.70;;;;;;6126638;23;20104;-79
2024/01/24 06:58:59;;;;;;;9.07;5.95;;;7.80;70.80;;;;;;6152665;23;20025;-78
2024/01/24 07:01:26;;;;;;;8.90;6.18;;;7.90;70.80;;;;;;6154170;23;20018;-80
2024/01/24 07:03:52;;;;;;;9.82;6.22;;;7.90;70.90;;;;;;6151111;23;20017;-80
2024/01/24 07:06:18;;;;;;;8.85;5.93;;;7.90;70.90;;;;;;6152751;23;20013;-80
2024/01/24 07:08:45;;;;;;;10.07;6.47;;;7.90;71.10;;;;;;6151265;23;20076;-80
2024/01/24 07:11:11;;;;;;;9.68;6.10;;;7.90;71.30;;;;;;6152529;23;20017;-80
2024/01/24 07:13:38;;;;;;;8.20;6.25;;;7.90;71.30;;;;;;6102263;23;20010;-78
2024/01/24 07:16:04;;;;;;;8.93;6.80;;;7.90;71.40;;;;;;6126655;23;20473;-79
2024/01/24 07:18:33;;;;;;;8.48;6.20;;;7.90;71.40;;;;;;6126530;23;20017;-78
2024/01/24 07:21:00;;;;;;;9.25;5.97;;;7.90;71.50;;;;;;6126360;23;20021;-80
2024/01/24 07:23:26;;;;;;;9.73;5.47;;;7.90;71.50;;;;;;6150002;23;20022;-80
2024/01/24 07:25:53;;;;;;;11.73;6.22;;;7.90;71.50;;;;;;6126450;23;20013;-80
2024/01/24 07:28:19;;;;;;;9.00;6.55;;;7.90;71.50;;;;;;6153586;23;20010;-79
2024/01/24 07:30:46;;;;;;;11.02;6.38;;;7.90;71.40;;;;;;6154550;23;20021;-79
2024/01/24 07:33:12;;;;;;;7.20;5.97;;;7.90;71.40;;;;;;6128169;23;20017;-79
2024/01/24 07:35:40;;;;;;;9.70;6.30;;;7.90;71.30;;;;;;6103693;23;20025;-81
2024/01/24 07:38:06;;;;;;;10.20;6.13;;;8.00;71.30;;;;;;6152716;23;20013;-79
2024/01/24 07:40:32;;;;;;;10.25;6.68;;;8.00;71.30;;;;;;6152820;23;20552;-80
2024/01/24 07:42:58;;;;;;;8.43;5.63;;;8.00;71.40;;;;;;6154697;23;20021;-79
2024/01/24 07:45:24;;;;;;;9.38;5.60;;;8.00;71.40;;;;;;6152416;23;20014;-79
2024/01/24 07:47:51;;;;;;;10.25;6.03;;;8.00;71.40;;;;;;6127882;23;20026;-80
2024/01/24 07:50:17;;;;;;;10.80;6.22;;;8.00;71.40;;;;;;6152501;23;20101;-77
2024/01/24 07:52:46;;;;;;;8.77;6.60;;;8.00;71.40;;;;;;6126639;23;20034;-79
2024/01/24 07:55:13;;;;;;;8.88;5.93;;;8.00;71.50;;;;;;6103612;23;20032;-78
2024/01/24 07:57:40;;;;;;;8.23;5.78;;;8.00;71.50;;;;;;6103395;23;20353;-79
2024/01/24 08:00:06;;;;;;;8.48;6.15;;;8.00;71.60;;;;;;6152928;23;20361;-79
2024/01/24 08:02:32;;;;;;;10.57;6.75;;;8.00;71.50;;;;;;6153394;23;20022;-79
2024/01/24 08:04:59;;;;;;;10.68;6.40;;;8.00;71.50;;;;;;6080006;23;20338;-78
2024/01/24 08:07:25;;;;;;;10.80;6.47;;;8.00;71.60;;;;;;6153153;23;20012;-79
2024/01/24 08:09:51;;;;;;;8.50;6.45;;;8.10;71.50;;;;;;6128137;23;20021;-81
2024/01/24 08:12:18;;;;;;;9.50;5.95;;;8.10;71.60;;;;;;6103443;23;20426;-82
2024/01/24 08:14:44;;;;;;;8.20;6.00;;;8.10;71.50;;;;;;6103793;23;20021;-81
2024/01/24 08:17:10;;;;;;;9.27;6.65;;;8.10;72.20;;;;;;6127721;23;20161;-81
2024/01/24 08:19:38;;;;;;;9.20;6.95;;;8.10;71.60;;;;;;6154610;23;20099;-80
2024/01/24 08:22:04;;;;;;;11.85;6.00;;;8.10;71.70;;;;;;6103756;23;20022;-82
2024/01/24 08:24:30;;;;;;;8.73;5.88;;;8.10;71.70;;;;;;6127376;23;20025;-82
2024/01/24 08:26:56;;;;;;;8.63;6.35;;;8.10;71.60;;;;;;6152488;23;20072;-83
2024/01/24 08:29:41;;;;;;;10.15;6.60;;;8.10;71.70;;;;;;6153111;23;20096;-79
2024/01/24 08:32:07;;;;;;;13.10;6.00;;;8.10;71.60;;;;;;6152687;23;20033;-80
2024/01/24 08:34:35;;;;;;;10.65;6.45;;;8.10;71.60;;;;;;6153101;23;20536;-78
2024/01/24 08:37:01;;;;;;;6.88;5.45;;;8.10;71.50;;;;;;6153847;23;20039;-78
2024/01/24 08:39:27;;;;;;;7.88;5.60;;;8.10;71.60;;;;;;6127216;23;20192;-77
2024/01/24 08:41:53;;;;;;;10.48;6.20;;;8.20;71.60;;;;;;6152244;23;20025;-76
2024/01/24 08:44:19;;;;;;;7.32;5.68;;;8.10;71.50;;;;;;6152669;23;20460;-76
2024/01/24 08:46:45;;;;;;;11.05;6.47;;;8.20;71.60;;;;;;6152330;23;20472;-75
2024/01/24 08:49:12;;;;;;;9.13;5.93;;;8.20;71.60;;;;;;6153481;23;20465;-75
2024/01/24 08:51:39;;;;;;;9.55;5.47;;;8.20;71.80;;;;;;6126199;23;20028;-74
2024/01/24 08:54:05;;;;;;;9.35;5.30;;;8.20;74.80;;;;;;6152398;23;20025;-74
2024/01/24 08:56:31;;;;;;;11.10;5.93;;;8.40;77.90;;;;;;6152050;23;20018;-74
2024/01/24 08:58:57;;;;;;;8.15;5.95;;;8.50;79.20;;;;;;6152269;23;20084;-74
2024/01/24 09:01:23;;;;;;;8.88;5.47;;;8.60;79.80;;;;;;6150516;23;20009;-74
2024/01/24 09:03:49;;;;;;;9.52;4.95;;;8.70;79.90;;;;;;6122265;23;20017;-76
2024/01/24 09:06:15;;;;;;;8.82;4.60;;;8.70;79.10;;;;;;6149668;23;20013;-77
2024/01/24 09:08:45;;;;;;;11.10;4.60;;;8.70;77.90;;;;;;6148178;23;20557;-77
2024/01/24 09:11:11;;;;;;;9.30;5.20;;;8.80;77.30;;;;;;6148858;23;20010;-76
2024/01/24 09:13:37;;;;;;;7.93;5.30;;;8.80;76.60;;;;;;6148579;23;20019;-76
2024/01/24 09:16:03;;;;;;;8.30;5.57;;;8.80;75.80;;;;;;6123676;23;20368;-75
2024/01/24 09:18:29;;;;;;;8.85;5.45;;;8.80;75.40;;;;;;6098310;23;20017;-75
2024/01/24 09:20:55;;;;;;;7.80;5.65;;;8.80;75.10;;;;;;6149644;23;20110;-76
2024/01/24 09:23:22;;;;;;;7.88;5.10;;;8.80;75.00;;;;;;6149576;23;20560;-77
2024/01/24 09:25:48;;;;;;;8.30;5.97;;;8.80;74.90;;;;;;6147382;23;20006;-77
2024/01/24 09:28:14;;;;;;;6.57;5.30;;;8.80;74.70;;;;;;6147798;23;20080;-77
2024/01/24 09:30:40;;;;;;;7.38;5.57;;;8.90;74.80;;;;;;6123582;23;20018;-76
2024/01/24 09:33:07;;;;;;;7.50;5.25;;;8.80;75.30;;;;;;6147992;23;20040;-75
2024/01/24 09:35:33;;;;;;;9.40;5.88;;;8.90;74.70;;;;;;6148411;23;20017;-76
2024/01/24 09:37:59;;;;;;;8.07;5.18;;;8.90;74.50;;;;;;6149783;23;20418;-76
2024/01/24 09:40:25;;;;;;;9.43;5.88;;;8.90;74.50;;;;;;6150013;23;20013;-75
2024/01/24 09:42:51;;;;;;;9.43;5.40;;;8.90;74.50;;;;;;6149732;23;20401;-75
2024/01/24 09:45:18;;;;;;;12.15;5.60;;;8.90;74.40;;;;;;6123780;23;20024;-76
2024/01/24 09:47:47;;;;;;;11.90;6.03;;;8.90;74.30;;;;;;6147563;23;20030;-76
2024/01/24 09:50:14;;;;;;;7.20;5.05;;;8.90;74.20;;;;;;6149404;23;20057;-77
2024/01/24 09:52:41;;;;;;;7.30;4.80;;;8.90;74.20;;;;;;6149650;23;20025;-76
2024/01/24 09:55:13;;;;;;;8.32;5.57;;;8.90;74.20;;;;;;6123341;23;20516;-77
2024/01/24 09:57:39;;;;;;;5.97;4.78;;;8.90;74.10;;;;;;6099069;23;20025;-80
2024/01/24 10:00:09;;;;;;;6.63;5.07;;;8.90;73.80;;;;;;6100572;23;20029;-80
2024/01/24 10:02:35;;;;;;;7.07;5.30;;;8.90;73.60;;;;;;6150067;23;20048;-79
2024/01/24 10:05:05;;;;;;;6.72;4.97;;;8.90;73.60;;;;;;6124182;23;20104;-79
2024/01/24 10:07:31;;;;;;;7.93;5.15;;;8.90;73.50;;;;;;6149995;23;20013;-79
2024/01/24 10:10:17;;;;;;;7.35;5.32;;;8.90;73.50;;;;;;6151708;23;20148;-80
2024/01/24 10:12:44;;;;;;;6.72;4.75;;;8.90;74.10;;;;;;6100652;23;20381;-82
2024/01/24 10:15:13;;;;;;;5.80;4.97;;;8.90;73.70;;;;;;6100376;23;20108;-81
2024/01/24 10:17:41;;;;;;;7.68;5.13;;;8.90;74.00;;;;;;6148821;23;20029;-78
2024/01/24 10:20:12;;;;;;;6.72;4.57;;;8.90;73.70;;;;;;6150032;23;20469;-79
2024/01/24 10:22:39;;;;;;;6.22;4.47;;;9.00;73.90;;;;;;6125170;23;20013;-80
2024/01/24 10:25:06;;;;;;;7.88;5.10;;;9.00;73.80;;;;;;6150361;23;20108;-78
2024/01/24 10:27:37;;;;;;;7.13;4.85;;;9.00;73.70;;;;;;6123219;23;20029;-78
2024/01/24 10:30:13;;;;;;;6.05;4.90;;;9.00;74.20;;;;;;6123794;23;20017;-78
2024/01/24 10:32:45;;;;;;;6.32;4.32;;;9.00;73.50;;;;;;6148439;23;20014;-79
2024/01/24 10:35:12;;;;;;;6.07;4.22;;;9.00;73.40;;;;;;6123418;23;20020;-78
2024/01/24 10:37:42;;;;;;;6.53;4.47;;;9.00;73.40;;;;;;6152543;23;20064;-87
2024/01/24 10:40:28;;;;;;;7.03;4.63;;;9.00;73.30;;;;;;6090490;23;20571;-81
2024/01/24 10:43:02;;;;;;;5.20;4.30;;;9.00;73.20;;;;;;6165813;23;20022;-86
2024/01/24 10:45:31;;;;;;;7.82;4.53;;;9.00;73.20;;;;;;6113218;23;20465;-84
2024/01/24 10:47:58;;;;;;;6.88;4.40;;;9.00;73.00;;;;;;6135916;23;20040;-84
2024/01/24 10:50:25;;;;;;;7.65;4.57;;;9.00;72.90;;;;;;6159353;23;20076;-81
2024/01/24 10:52:51;;;;;;;5.90;4.43;;;9.00;72.70;;;;;;6109753;23;20461;-80
2024/01/24 10:55:20;;;;;;;5.22;4.10;;;9.00;72.60;;;;;;6157699;23;20014;-83
2024/01/24 10:57:48;;;;;;;5.65;4.22;;;9.00;72.40;;;;;;6084904;23;20021;-85
2024/01/24 11:00:17;;;;;;;4.88;3.80;;;9.00;72.60;;;;;;6151875;23;20025;-82
2024/01/24 11:02:43;;;;;;;6.25;4.00;;;9.00;72.60;;;;;;6151197;23;20033;-82
2024/01/24 11:05:25;;;;;;;7.15;4.65;;;9.00;72.80;;;;;;6153266;23;20021;-84
2024/01/24 11:08:06;;;;;;;5.90;4.22;;;9.00;73.00;;;;;;6104113;23;20017;-84
2024/01/24 11:10:42;;;;;;;6.05;3.97;;;9.00;73.00;;;;;;6105383;23;20064;-84
2024/01/24 11:13:10;;;;;;;6.38;4.35;;;9.00;73.20;;;;;;6129611;23;20037;-83
2024/01/24 11:15:36;;;;;;;6.78;4.35;;;9.00;73.20;;;;;;6105370;23;20104;-86
2024/01/24 11:18:34;;;;;;;6.43;4.70;;;9.00;73.20;;;;;;6104976;23;20034;-83
2024/01/24 11:21:01;;;;;;;6.30;4.10;;;9.00;73.30;;;;;;6107201;23;20025;-88
2024/01/24 11:23:46;;;;;;;6.30;4.40;;;9.00;73.30;;;;;;6107480;23;20398;-85
2024/01/24 11:26:18;;;;;;;7.97;3.90;;;9.00;73.40;;;;;;6156707;23;20044;-89
2024/01/24 11:28:45;;;;;;;5.07;4.20;;;9.00;74.00;;;;;;6106710;23;20036;-87
2024/01/24 11:31:12;;;;;;;6.50;4.70;;;9.00;73.40;;;;;;6129802;23;20053;-87
2024/01/24 11:34:09;;;;;;;6.55;4.03;;;9.00;73.50;;;;;;6156522;23;20027;-87
2024/01/24 11:36:48;;;;;;;7.15;4.28;;;9.00;73.50;;;;;;6105276;23;20150;-86
2024/01/24 11:39:39;;;;;;;8.10;4.88;;;9.00;73.70;;;;;;6080845;23;20025;-87
2024/01/24 11:42:24;;;;;;;9.00;4.60;;;9.00;73.80;;;;;;6082728;23;20041;-89
2024/01/24 11:44:52;;;;;;;7.32;4.32;;;9.00;73.70;;;;;;6106291;23;20071;-90
2024/01/24 11:47:21;;;;;;;7.18;4.30;;;9.00;73.90;;;;;;6100792;23;20026;-89
2024/01/24 11:49:48;;;;;;;6.35;4.47;;;9.00;73.90;;;;;;6076538;23;20049;-87
2024/01/24 11:52:20;;;;;;;8.90;4.72;;;9.00;73.90;;;;;;6103131;23;20010;-91
2024/01/24 11:54:53;;;;;;;5.68;4.35;;;9.00;73.90;;;;;;6078964;23;20041;-86
2024/01/24 11:57:19;;;;;;;6.47;4.88;;;9.10;74.10;;;;;;6083257;23;20045;-88
2024/01/24 11:59:45;;;;;;;7.53;4.25;;;9.00;74.00;;;;;;6131249;23;20021;-85
2024/01/24 12:02:11;;;;;;;6.55;4.53;;;9.00;74.10;;;;;;6099244;23;20022;-84
2024/01/24 12:04:37;;;;;;;8.60;4.55;;;9.00;74.10;;;;;;6100423;23;20469;-86
2024/01/24 12:07:03;;;;;;;8.02;5.15;;;9.00;74.30;;;;;;6099136;23;20028;-86
2024/01/24 12:09:29;;;;;;;7.47;4.25;;;9.00;74.20;;;;;;6099001;23;20033;-85
2024/01/24 12:11:55;;;;;;;6.90;4.50;;;9.00;74.10;;;;;;6099518;23;20025;-85
2024/01/24 12:14:22;;;;;;;7.47;4.32;;;9.00;74.10;;;;;;6124660;23;20377;-93
2024/01/24 12:16:48;;;;;;;6.93;4.43;;;9.00;74.30;;;;;;6077977;23;20009;-87
2024/01/24 12:19:15;;;;;;;7.68;3.95;;;9.00;74.30;;;;;;6125600;23;20014;-88
2024/01/24 12:21:41;;;;;;;8.18;4.57;;;9.00;74.30;;;;;;6132956;23;20096;-86
2024/01/24 12:24:09;;;;;;;7.40;4.82;;;9.00;74.50;;;;;;6078372;23;20352;-90
2024/01/24 12:26:39;;;;;;;5.75;4.40;;;9.00;74.30;;;;;;6124303;23;20097;-83
2024/01/24 12:29:05;;;;;;;6.35;4.55;;;9.10;74.30;;;;;;6124634;23;20065;-88
2024/01/24 12:31:31;;;;;;;7.07;4.55;;;9.00;74.70;;;;;;6102096;23;20092;-91
2024/01/24 12:33:57;;;;;;;7.72;4.60;;;9.00;74.80;;;;;;6127619;23;20042;-87
2024/01/24 12:36:24;;;;;;;6.85;4.85;;;9.10;75.00;;;;;;6122293;23;20068;-87
2024/01/24 12:38:54;;;;;;;5.93;4.13;;;9.00;75.20;;;;;;6123422;23;20128;-87
2024/01/24 12:41:21;;;;;;;6.72;4.38;;;9.00;75.20;;;;;;6124636;23;20030;-90
2024/01/24 12:43:47;;;;;;;7.00;4.03;;;9.10;75.30;;;;;;6100296;23;20041;-89
2024/01/24 12:46:13;;;;;;;7.22;4.60;;;9.00;75.40;;;;;;6102651;23;20017;-89
2024/01/24 12:48:39;;;;;;;6.88;4.22;;;9.00;75.50;;;;;;6102578;23;20485;-92
2024/01/24 12:51:06;;;;;;;5.75;4.20;;;9.10;75.70;;;;;;6102778;23;20028;-88
2024/01/24 12:53:32;;;;;;;4.93;3.90;;;9.10;75.80;;;;;;6080235;23;20238;-90
2024/01/24 12:55:59;;;;;;;6.38;4.38;;;9.00;75.80;;;;;;6126419;23;20014;-89
2024/01/24 12:58:25;;;;;;;5.03;4.07;;;9.10;75.80;;;;;;6102070;23;20069;-90